createdAt,value
2018-01-03T00:00:16.356Z,1.83
2018-01-03T00:02:43.852Z,2.70
2018-01-03T00:05:11.315Z,1.97
2018-01-03T00:07:38.761Z,2.10
2018-01-03T00:10:06.229Z,1.50
2018-01-03T00:12:33.680Z,2.10
2018-01-03T00:15:01.146Z,1.60
2018-01-03T00:17:28.619Z,1.73
2018-01-03T00:19:56.073Z,1.57
2018-01-03T00:22:23.534Z,1.60
2018-01-03T00:24:51.056Z,1.40
2018-01-03T00:27:18.498Z,1.37
2018-01-03T00:29:45.950Z,1.83
2018-01-03T00:32:13.484Z,1.70
2018-01-03T00:34:40.932Z,1.37
2018-01-03T00:37:08.425Z,1.73
2018-01-03T00:39:35.866Z,1.83
2018-01-03T00:42:03.341Z,2.00
2018-01-03T00:44:30.814Z,1.60
2018-01-03T00:46:58.270Z,1.17
2018-01-03T00:49:25.719Z,0.90
2018-01-03T00:51:53.172Z,1.57
2018-01-03T00:54:20.664Z,1.20
2018-01-03T00:56:48.097Z,1.30
2018-01-03T00:59:15.548Z,1.00
2018-01-03T01:01:43.007Z,1.33
2018-01-03T01:04:10.460Z,1.17
2018-01-03T01:06:37.955Z,1.00
2018-01-03T01:09:05.398Z,1.00
2018-01-03T01:11:32.872Z,0.90
2018-01-03T01:14:00.334Z,1.13
2018-01-03T01:16:27.790Z,0.70
2018-01-03T01:18:55.494Z,0.80
2018-01-03T01:21:22.945Z,0.80
2018-01-03T01:23:50.414Z,0.70
2018-01-03T01:26:17.881Z,0.87
2018-01-03T01:28:45.325Z,0.87
2018-01-03T01:31:12.811Z,1.13
2018-01-03T01:33:40.272Z,1.57
2018-01-03T01:36:07.730Z,0.80
2018-01-03T01:38:35.182Z,0.80
2018-01-03T01:41:02.622Z,0.60
2018-01-03T01:43:30.095Z,0.90
2018-01-03T01:45:57.556Z,0.70
2018-01-03T01:48:25.028Z,1.23
2018-01-03T01:50:52.470Z,0.90
2018-01-03T01:53:19.966Z,0.73
2018-01-03T01:55:47.447Z,0.70
2018-01-03T01:58:14.886Z,0.80
2018-01-03T02:00:42.342Z,0.90
2018-01-03T02:03:09.783Z,0.80
2018-01-03T02:05:37.243Z,0.77
2018-01-03T02:08:04.686Z,0.60
2018-01-03T02:10:32.151Z,0.60
2018-01-03T02:12:59.611Z,0.60
2018-01-03T02:15:27.061Z,0.60
2018-01-03T02:17:54.518Z,0.70
2018-01-03T02:20:21.985Z,0.80
2018-01-03T02:22:49.450Z,0.60
2018-01-03T02:25:16.894Z,0.57
2018-01-03T02:27:44.358Z,1.40
2018-01-03T02:30:11.819Z,0.83
2018-01-03T02:32:39.268Z,0.80
2018-01-03T02:35:06.731Z,0.93
2018-01-03T02:37:34.186Z,0.90
2018-01-03T02:40:01.644Z,0.83
2018-01-03T02:42:29.103Z,1.00
2018-01-03T02:44:56.570Z,0.90
2018-01-03T02:47:24.027Z,1.10
2018-01-03T02:49:51.476Z,0.87
2018-01-03T02:52:18.930Z,0.70
2018-01-03T02:54:46.374Z,0.87
2018-01-03T02:57:13.841Z,0.70
2018-01-03T02:59:41.286Z,0.70
2018-01-03T03:02:08.734Z,0.93
2018-01-03T03:04:36.212Z,0.80
2018-01-03T03:07:03.665Z,0.83
2018-01-03T03:09:31.171Z,0.90
2018-01-03T03:11:58.630Z,1.13
2018-01-03T03:14:26.072Z,0.90
2018-01-03T03:16:53.537Z,0.90
2018-01-03T03:19:20.971Z,1.30
2018-01-03T03:21:48.502Z,0.70
2018-01-03T03:24:15.954Z,0.70
2018-01-03T03:26:43.438Z,0.83
2018-01-03T03:29:10.881Z,0.90
2018-01-03T03:31:38.334Z,1.57
2018-01-03T03:34:05.796Z,0.70
2018-01-03T03:36:33.254Z,1.23
2018-01-03T03:39:00.711Z,0.70
2018-01-03T03:41:28.192Z,0.60
2018-01-03T03:43:55.652Z,0.63
2018-01-03T03:46:23.123Z,0.67
2018-01-03T03:48:50.578Z,0.80
2018-01-03T03:51:18.020Z,0.67
2018-01-03T03:53:45.478Z,0.70
2018-01-03T03:56:12.934Z,0.70
2018-01-03T03:58:40.389Z,0.67
2018-01-03T04:01:07.850Z,0.63
2018-01-03T04:03:35.302Z,0.60
2018-01-03T04:06:02.786Z,0.60
2018-01-03T04:08:30.234Z,0.60
2018-01-03T04:10:57.723Z,0.67
2018-01-03T04:13:25.180Z,0.70
2018-01-03T04:15:52.614Z,1.10
2018-01-03T04:18:20.066Z,0.60
2018-01-03T04:20:47.511Z,0.70
2018-01-03T04:23:14.979Z,0.83
2018-01-03T04:25:42.424Z,0.70
2018-01-03T04:28:09.899Z,0.60
2018-01-03T04:30:37.338Z,0.50
2018-01-03T04:33:04.802Z,0.57
2018-01-03T04:35:32.260Z,0.70
2018-01-03T04:37:59.714Z,0.50
2018-01-03T04:40:27.155Z,0.60
2018-01-03T04:42:54.612Z,0.70
2018-01-03T04:45:22.055Z,0.50
2018-01-03T04:47:49.511Z,0.70
2018-01-03T04:50:16.973Z,0.70
2018-01-03T04:52:44.413Z,0.53
2018-01-03T04:55:11.884Z,0.60
2018-01-03T04:57:39.346Z,0.60
2018-01-03T05:00:06.806Z,0.53
2018-01-03T05:02:34.262Z,0.60
2018-01-03T05:05:01.749Z,0.60
2018-01-03T05:07:29.202Z,0.50
2018-01-03T05:09:56.672Z,0.60
2018-01-03T05:12:24.119Z,0.70
2018-01-03T05:14:51.573Z,0.60
2018-01-03T05:17:19.035Z,0.53
2018-01-03T05:19:46.489Z,0.60
2018-01-03T05:22:13.950Z,0.50
2018-01-03T05:24:41.398Z,0.80
2018-01-03T05:27:08.867Z,0.80
2018-01-03T05:29:36.312Z,0.70
2018-01-03T05:32:03.776Z,0.67
2018-01-03T05:34:31.214Z,0.70
2018-01-03T05:36:58.665Z,0.50
2018-01-03T05:39:26.108Z,0.60
2018-01-03T05:41:53.586Z,0.70
2018-01-03T05:44:21.042Z,0.70
2018-01-03T05:46:48.491Z,0.80
2018-01-03T05:49:15.948Z,0.60
2018-01-03T05:51:43.390Z,0.60
2018-01-03T05:54:10.852Z,0.50
2018-01-03T05:56:38.323Z,0.50
2018-01-03T05:59:05.789Z,0.60
2018-01-03T06:01:33.239Z,0.70
2018-01-03T06:04:00.679Z,0.60
2018-01-03T06:06:28.139Z,0.70
2018-01-03T06:08:55.583Z,0.70
2018-01-03T06:11:23.086Z,0.60
2018-01-03T06:13:50.523Z,0.70
2018-01-03T06:16:17.978Z,0.60
2018-01-03T06:18:45.472Z,0.50
2018-01-03T06:21:12.935Z,0.60
2018-01-03T06:23:40.432Z,0.50
2018-01-03T06:26:07.885Z,0.50
2018-01-03T06:28:35.330Z,0.60
2018-01-03T06:31:02.788Z,0.63
2018-01-03T06:33:30.228Z,0.80
2018-01-03T06:35:57.702Z,0.60
2018-01-03T06:38:25.148Z,0.50
2018-01-03T06:40:52.611Z,0.50
2018-01-03T06:43:20.072Z,0.60
2018-01-03T06:45:47.543Z,0.60
2018-01-03T06:48:14.988Z,0.70
2018-01-03T06:50:42.444Z,0.60
2018-01-03T06:53:09.892Z,0.50
2018-01-03T06:55:37.350Z,0.70
2018-01-03T06:58:04.799Z,0.67
2018-01-03T07:00:32.274Z,0.80
2018-01-03T07:02:59.726Z,0.60
2018-01-03T07:05:27.188Z,0.60
2018-01-03T07:07:54.657Z,0.63
2018-01-03T07:10:22.103Z,0.80
2018-01-03T07:12:49.575Z,0.40
2018-01-03T07:15:17.015Z,0.60
2018-01-03T07:17:44.476Z,0.50
2018-01-03T07:20:11.928Z,0.67
2018-01-03T07:22:39.401Z,0.50
2018-01-03T07:25:06.838Z,0.50
2018-01-03T07:27:34.302Z,0.60
2018-01-03T07:30:01.753Z,0.70
2018-01-03T07:32:29.219Z,0.60
2018-01-03T07:34:56.666Z,0.50
2018-01-03T07:37:24.131Z,0.67
2018-01-03T07:39:51.583Z,0.60
2018-01-03T07:42:19.032Z,0.80
2018-01-03T07:44:46.483Z,0.80
2018-01-03T07:47:13.928Z,0.60
2018-01-03T07:49:41.396Z,0.60
2018-01-03T07:52:08.859Z,1.13
2018-01-03T07:54:36.314Z,0.70
2018-01-03T07:57:03.772Z,0.93
2018-01-03T07:59:31.230Z,0.60
2018-01-03T08:01:58.691Z,0.80
2018-01-03T08:04:26.144Z,0.70
2018-01-03T08:06:53.608Z,0.90
2018-01-03T08:09:21.055Z,0.63
2018-01-03T08:11:48.535Z,0.87
2018-01-03T08:14:15.991Z,0.50
2018-01-03T08:16:43.448Z,0.50
2018-01-03T08:19:10.888Z,0.50
2018-01-03T08:21:38.360Z,0.60
2018-01-03T08:24:05.826Z,0.60
2018-01-03T08:26:33.274Z,0.60
2018-01-03T08:29:00.743Z,0.50
2018-01-03T08:31:28.188Z,0.50
2018-01-03T08:33:55.650Z,0.50
2018-01-03T08:36:23.106Z,0.47
2018-01-03T08:38:50.593Z,0.50
2018-01-03T08:41:18.114Z,0.60
2018-01-03T08:43:45.576Z,0.50
2018-01-03T08:46:13.043Z,0.60
2018-01-03T08:48:40.494Z,0.50
2018-01-03T08:51:07.946Z,0.67
2018-01-03T08:53:35.396Z,0.60
2018-01-03T08:56:02.882Z,0.50
2018-01-03T08:58:30.347Z,0.50
2018-01-03T09:00:57.803Z,0.50
2018-01-03T09:03:25.262Z,0.80
2018-01-03T09:05:52.724Z,0.70
2018-01-03T09:08:20.179Z,0.70
2018-01-03T09:10:47.634Z,0.87
2018-01-03T09:13:15.083Z,0.50
2018-01-03T09:15:42.546Z,0.80
2018-01-03T09:18:09.990Z,0.50
2018-01-03T09:20:37.451Z,0.40
2018-01-03T09:23:04.895Z,0.50
2018-01-03T09:25:32.363Z,0.43
2018-01-03T09:27:59.834Z,0.60
2018-01-03T09:30:27.287Z,0.60
2018-01-03T09:32:54.747Z,0.60
2018-01-03T09:35:22.182Z,0.73
2018-01-03T09:37:49.656Z,0.80
2018-01-03T09:40:17.116Z,0.70
2018-01-03T09:42:44.593Z,0.70
2018-01-03T09:45:12.047Z,1.00
2018-01-03T09:47:39.520Z,1.20
2018-01-03T09:50:06.985Z,0.70
2018-01-03T09:52:34.443Z,0.80
2018-01-03T09:55:01.920Z,0.63
2018-01-03T09:57:29.391Z,0.77
2018-01-03T09:59:56.872Z,0.70
2018-01-03T10:02:24.317Z,0.60
2018-01-03T10:04:51.772Z,0.60
2018-01-03T10:07:19.226Z,0.90
2018-01-03T10:09:46.681Z,0.40
2018-01-03T10:12:14.159Z,0.60
2018-01-03T10:14:41.606Z,0.80
2018-01-03T10:17:09.117Z,0.70
2018-01-03T10:19:36.561Z,0.60
2018-01-03T10:22:04.023Z,0.60
2018-01-03T10:24:31.473Z,0.50
2018-01-03T10:26:58.926Z,0.50
2018-01-03T10:29:26.393Z,0.63
2018-01-03T10:31:53.835Z,0.60
2018-01-03T10:34:21.295Z,0.83
2018-01-03T10:36:48.736Z,0.60
2018-01-03T10:39:16.201Z,0.70
2018-01-03T10:41:43.646Z,0.73
2018-01-03T10:44:11.127Z,0.67
2018-01-03T10:46:38.588Z,0.63
2018-01-03T10:49:06.047Z,0.50
2018-01-03T10:51:33.495Z,0.80
2018-01-03T10:54:01.002Z,0.60
2018-01-03T10:56:28.482Z,1.13
2018-01-03T10:58:55.924Z,0.70
2018-01-03T11:01:23.386Z,0.83
2018-01-03T11:03:50.847Z,0.50
2018-01-03T11:06:18.310Z,0.50
2018-01-03T11:08:45.759Z,0.70
2018-01-03T11:11:13.219Z,0.60
2018-01-03T11:13:40.663Z,0.60
2018-01-03T11:16:08.180Z,0.50
2018-01-03T11:18:35.626Z,0.60
2018-01-03T11:21:03.087Z,0.63
2018-01-03T11:23:30.536Z,0.60
2018-01-03T11:25:57.991Z,0.60
2018-01-03T11:28:25.440Z,0.60
2018-01-03T11:30:52.899Z,1.93
2018-01-03T11:33:20.354Z,3.93
2018-01-03T11:35:47.822Z,2.00
2018-01-03T11:38:15.269Z,0.93
2018-01-03T11:40:42.747Z,0.63
2018-01-03T11:43:10.199Z,0.70
2018-01-03T11:45:37.647Z,0.70
2018-01-03T11:48:05.185Z,0.50
2018-01-03T11:50:32.640Z,0.80
2018-01-03T11:53:00.102Z,0.70
2018-01-03T11:55:27.538Z,0.63
2018-01-03T11:57:54.992Z,0.50
2018-01-03T12:00:22.443Z,0.50
2018-01-03T12:02:49.913Z,0.50
2018-01-03T12:05:17.371Z,0.63
2018-01-03T12:07:45.798Z,0.70
2018-01-03T12:10:13.250Z,0.60
2018-01-03T12:12:40.691Z,0.60
2018-01-03T12:15:08.162Z,0.50
2018-01-03T12:17:35.599Z,0.77
2018-01-03T12:20:03.056Z,0.40
2018-01-03T12:22:30.496Z,0.50
2018-01-03T12:24:57.992Z,0.50
2018-01-03T12:27:25.471Z,0.50
2018-01-03T12:29:52.931Z,0.60
2018-01-03T12:32:20.368Z,0.60
2018-01-03T12:34:47.830Z,0.50
2018-01-03T12:37:15.271Z,1.00
2018-01-03T12:39:42.778Z,1.00
2018-01-03T12:42:10.227Z,0.60
2018-01-03T12:44:37.691Z,0.60
2018-01-03T12:47:05.147Z,0.40
2018-01-03T12:49:32.611Z,0.50
2018-01-03T12:52:00.060Z,0.50
2018-01-03T12:54:27.515Z,0.60
2018-01-03T12:56:54.975Z,0.50
2018-01-03T12:59:22.430Z,0.60
2018-01-03T13:01:49.879Z,0.97
2018-01-03T13:04:17.330Z,0.70
2018-01-03T13:06:44.794Z,0.70
2018-01-03T13:09:12.250Z,0.60
2018-01-03T13:11:39.710Z,1.00
2018-01-03T13:14:07.180Z,0.90
2018-01-03T13:16:34.642Z,0.53
2018-01-03T13:19:02.082Z,0.63
2018-01-03T13:21:29.587Z,0.80
2018-01-03T13:23:57.088Z,1.07
2018-01-03T13:26:24.510Z,0.60
2018-01-03T13:28:51.975Z,0.90
2018-01-03T13:31:19.406Z,0.80
2018-01-03T13:33:46.879Z,1.00
2018-01-03T13:36:14.356Z,1.10
2018-01-03T13:38:41.824Z,0.80
2018-01-03T13:41:09.283Z,0.60
2018-01-03T13:43:36.743Z,0.60
2018-01-03T13:46:04.241Z,0.80
2018-01-03T13:48:31.704Z,0.70
2018-01-03T13:50:59.158Z,0.80
2018-01-03T13:53:26.603Z,0.87
2018-01-03T13:55:54.086Z,1.13
2018-01-03T13:58:21.543Z,0.90
2018-01-03T14:00:49.015Z,1.00
2018-01-03T14:03:16.459Z,0.53
2018-01-03T14:05:43.911Z,0.70
2018-01-03T14:08:11.354Z,0.67
2018-01-03T14:10:38.842Z,0.70
2018-01-03T14:13:06.300Z,0.80
2018-01-03T14:15:33.753Z,0.80
2018-01-03T14:18:01.218Z,0.60
2018-01-03T14:20:28.663Z,1.07
2018-01-03T14:22:56.192Z,0.80
2018-01-03T14:25:23.642Z,1.17
2018-01-03T14:27:51.101Z,0.80
2018-01-03T14:30:18.646Z,0.80
2018-01-03T14:32:46.107Z,0.63
2018-01-03T14:35:13.552Z,0.70
2018-01-03T14:37:41.064Z,0.80
2018-01-03T14:40:08.526Z,0.60
2018-01-03T14:42:35.987Z,0.80
2018-01-03T14:45:03.443Z,0.60
2018-01-03T14:47:30.889Z,0.83
2018-01-03T14:49:58.349Z,0.70
2018-01-03T14:52:25.810Z,0.90
2018-01-03T14:54:53.251Z,0.60
2018-01-03T14:57:20.750Z,0.80
2018-01-03T14:59:48.190Z,0.97
2018-01-03T15:02:15.645Z,0.70
2018-01-03T15:04:43.092Z,0.80
2018-01-03T15:07:10.543Z,0.97
2018-01-03T15:09:37.994Z,1.07
2018-01-03T15:12:05.450Z,0.70
2018-01-03T15:14:32.895Z,0.80
2018-01-03T15:17:00.368Z,1.00
2018-01-03T15:19:27.810Z,1.00
2018-01-03T15:21:55.271Z,0.70
2018-01-03T15:24:22.717Z,0.90
2018-01-03T15:26:50.186Z,1.20
2018-01-03T15:29:17.621Z,1.10
2018-01-03T15:31:45.091Z,0.90
2018-01-03T15:34:12.551Z,1.07
2018-01-03T15:36:39.986Z,1.00
2018-01-03T15:39:07.454Z,0.70
2018-01-03T15:41:34.894Z,0.83
2018-01-03T15:44:02.346Z,1.40
2018-01-03T15:46:29.822Z,1.83
2018-01-03T15:48:57.297Z,0.90
2018-01-03T15:51:24.755Z,0.90
2018-01-03T15:53:52.197Z,1.37
2018-01-03T15:56:19.651Z,1.07
2018-01-03T15:58:47.104Z,0.80
2018-01-03T16:01:14.575Z,0.83
2018-01-03T16:03:42.038Z,1.07
2018-01-03T16:06:09.480Z,0.70
2018-01-03T16:08:36.930Z,0.90
2018-01-03T16:11:04.391Z,0.80
2018-01-03T16:13:31.835Z,1.30
2018-01-03T16:15:59.298Z,1.07
2018-01-03T16:18:26.746Z,1.43
2018-01-03T16:20:54.207Z,1.57
2018-01-03T16:23:21.679Z,1.33
2018-01-03T16:25:49.125Z,0.80
2018-01-03T16:28:16.668Z,1.57
2018-01-03T16:30:44.088Z,1.10
2018-01-03T16:33:11.565Z,1.17
2018-01-03T16:35:39.020Z,1.57
2018-01-03T16:38:06.497Z,1.23
2018-01-03T16:40:33.939Z,1.57
2018-01-03T16:43:01.420Z,1.27
2018-01-03T16:45:28.871Z,1.97
2018-01-03T16:47:56.334Z,1.50
2018-01-03T16:50:23.787Z,1.70
2018-01-03T16:53:07.922Z,1.70
2018-01-03T16:55:35.362Z,1.60
2018-01-03T16:58:02.819Z,1.03
2018-01-03T17:00:30.266Z,1.20
2018-01-03T17:02:57.737Z,1.10
2018-01-03T17:05:25.215Z,1.80
2018-01-03T17:07:52.671Z,1.53
2018-01-03T17:10:20.128Z,1.50
2018-01-03T17:12:47.577Z,1.20
2018-01-03T17:15:15.044Z,1.30
2018-01-03T17:17:42.509Z,1.70
2018-01-03T17:20:10.040Z,1.90
2018-01-03T17:22:37.504Z,1.70
2018-01-03T17:25:04.947Z,1.33
2018-01-03T17:27:32.415Z,1.57
2018-01-03T17:29:59.869Z,1.20
2018-01-03T17:32:27.330Z,1.10
2018-01-03T17:34:54.771Z,1.10
2018-01-03T17:37:22.328Z,1.30
2018-01-03T17:39:49.790Z,1.10
2018-01-03T17:42:17.251Z,1.37
2018-01-03T17:44:44.696Z,1.27
2018-01-03T17:47:12.150Z,1.40
2018-01-03T17:49:39.594Z,1.60
2018-01-03T17:52:07.061Z,2.10
2018-01-03T17:54:34.524Z,1.30
2018-01-03T17:57:01.985Z,2.23
2018-01-03T17:59:29.457Z,2.03
2018-01-03T18:01:56.915Z,1.70
2018-01-03T18:04:24.375Z,1.30
2018-01-03T18:06:51.838Z,1.80
2018-01-03T18:09:19.308Z,1.80
2018-01-03T18:11:46.811Z,1.50
2018-01-03T18:14:14.273Z,2.57
2018-01-03T18:16:41.735Z,2.60
2018-01-03T18:19:09.186Z,2.00
2018-01-03T18:21:36.659Z,2.60
2018-01-03T18:24:04.126Z,1.73
2018-01-03T18:26:31.576Z,1.87
2018-01-03T18:28:59.567Z,2.00
2018-01-03T18:31:27.011Z,2.63
2018-01-03T18:33:54.515Z,2.07
2018-01-03T18:36:21.959Z,1.90
2018-01-03T18:38:49.416Z,1.87
2018-01-03T18:41:16.940Z,2.67
2018-01-03T18:43:44.354Z,3.12
2018-01-03T18:46:11.813Z,1.80
2018-01-03T18:48:39.260Z,2.00
2018-01-03T18:51:06.731Z,2.33
2018-01-03T18:53:34.173Z,2.27
2018-01-03T18:56:01.663Z,2.93
2018-01-03T18:58:29.133Z,2.90
2018-01-03T19:00:56.588Z,2.70
2018-01-03T19:03:24.071Z,1.60
2018-01-03T19:05:51.506Z,1.73
2018-01-03T19:08:19.014Z,2.57
2018-01-03T19:10:46.463Z,2.20
2018-01-03T19:13:13.936Z,2.27
2018-01-03T19:15:41.379Z,1.73
2018-01-03T19:18:08.847Z,2.20
2018-01-03T19:20:36.310Z,1.57
2018-01-03T19:23:03.756Z,1.70
2018-01-03T19:25:31.228Z,3.10
2018-01-03T19:27:58.681Z,2.13
2018-01-03T19:30:26.173Z,2.50
2018-01-03T19:32:53.647Z,2.17
2018-01-03T19:35:21.117Z,1.70
2018-01-03T19:37:48.579Z,2.03
2018-01-03T19:40:16.047Z,1.67
2018-01-03T19:42:43.504Z,1.87
2018-01-03T19:45:11.002Z,2.10
2018-01-03T19:47:38.450Z,1.60
2018-01-03T19:50:05.940Z,1.90
2018-01-03T19:52:33.399Z,1.47
2018-01-03T19:55:00.874Z,2.13
2018-01-03T19:57:28.329Z,1.60
2018-01-03T19:59:55.806Z,1.70
2018-01-03T20:02:23.260Z,2.27
2018-01-03T20:04:50.726Z,2.10
2018-01-03T20:07:18.167Z,1.90
2018-01-03T20:09:45.649Z,1.23
2018-01-03T20:12:13.090Z,1.83
2018-01-03T20:14:40.557Z,2.37
2018-01-03T20:17:08.004Z,1.20
2018-01-03T20:19:35.461Z,1.83
2018-01-03T20:22:02.900Z,2.00
2018-01-03T20:24:30.440Z,1.80
2018-01-03T20:26:57.889Z,2.33
2018-01-03T20:29:25.330Z,1.43
2018-01-03T20:31:52.791Z,1.40
2018-01-03T20:34:20.232Z,1.43
2018-01-03T20:36:47.696Z,1.90
2018-01-03T20:39:15.138Z,1.63
2018-01-03T20:41:42.602Z,2.00
2018-01-03T20:44:10.043Z,2.10
2018-01-03T20:46:37.505Z,1.67
2018-01-03T20:49:04.946Z,1.53
2018-01-03T20:51:32.415Z,1.63
2018-01-03T20:53:59.866Z,1.60
2018-01-03T20:56:27.331Z,2.03
2018-01-03T20:58:54.794Z,1.80
2018-01-03T21:01:22.238Z,1.97
2018-01-03T21:03:49.695Z,1.67
2018-01-03T21:06:17.127Z,1.80
2018-01-03T21:08:44.599Z,2.23
2018-01-03T21:11:12.035Z,1.87
2018-01-03T21:13:39.555Z,1.50
2018-01-03T21:16:06.994Z,1.53
2018-01-03T21:18:34.483Z,1.93
2018-01-03T21:21:01.927Z,2.27
2018-01-03T21:23:29.408Z,2.13
2018-01-03T21:25:56.852Z,2.23
2018-01-03T21:28:24.323Z,2.20
2018-01-03T21:30:51.775Z,1.50
2018-01-03T21:33:19.232Z,2.00
2018-01-03T21:35:46.678Z,1.40
2018-01-03T21:38:14.147Z,1.60
2018-01-03T21:40:41.593Z,1.70
2018-01-03T21:43:09.062Z,1.90
2018-01-03T21:45:36.525Z,1.70
2018-01-03T21:48:03.998Z,1.60
2018-01-03T21:50:31.444Z,1.37
2018-01-03T21:52:58.899Z,1.53
2018-01-03T21:55:26.370Z,1.60
2018-01-03T21:57:53.806Z,2.00
2018-01-03T22:00:21.272Z,1.67
2018-01-03T22:02:48.725Z,1.60
2018-01-03T22:05:16.184Z,1.90
2018-01-03T22:07:43.626Z,1.13
2018-01-03T22:10:11.079Z,1.63
2018-01-03T22:12:38.519Z,2.07
2018-01-03T22:15:05.978Z,1.87
2018-01-03T22:17:33.468Z,1.77
2018-01-03T22:20:00.939Z,1.17
2018-01-03T22:22:28.413Z,1.60
2018-01-03T22:24:55.862Z,1.53
2018-01-03T22:27:23.330Z,1.90
2018-01-03T22:29:50.794Z,1.90
2018-01-03T22:32:18.281Z,1.77
2018-01-03T22:34:45.744Z,1.47
2018-01-03T22:37:13.216Z,1.70
2018-01-03T22:39:40.687Z,1.60
2018-01-03T22:42:08.130Z,1.70
2018-01-03T22:44:35.582Z,1.83
2018-01-03T22:47:03.034Z,1.43
2018-01-03T22:49:30.535Z,1.43
2018-01-03T22:51:57.995Z,1.43
2018-01-03T22:54:25.459Z,1.70
2018-01-03T22:56:52.930Z,1.70
2018-01-03T22:59:20.365Z,1.40
2018-01-03T23:01:47.835Z,1.60
2018-01-03T23:04:15.288Z,1.30
2018-01-03T23:06:42.751Z,1.47
2018-01-03T23:09:10.204Z,1.50
2018-01-03T23:11:37.856Z,1.57
2018-01-03T23:14:05.307Z,1.97
2018-01-03T23:16:32.763Z,1.60
2018-01-03T23:19:00.209Z,1.43
2018-01-03T23:21:27.976Z,1.03
2018-01-03T23:23:55.426Z,1.80
2018-01-03T23:26:22.890Z,2.03
2018-01-03T23:28:50.342Z,1.63
2018-01-03T23:31:17.806Z,1.50
2018-01-03T23:33:45.258Z,1.53
2018-01-03T23:36:12.715Z,1.70
2018-01-03T23:38:40.169Z,1.60
2018-01-03T23:41:07.627Z,1.70
2018-01-03T23:43:35.074Z,2.10
2018-01-03T23:46:02.534Z,2.00
2018-01-03T23:48:29.983Z,1.50
2018-01-03T23:50:57.443Z,2.27
2018-01-03T23:53:24.996Z,1.97
2018-01-03T23:55:52.461Z,1.53
2018-01-03T23:58:19.917Z,1.33
